createdAt,value
2016-09-29T00:00:17.174Z,69.9
2016-09-29T00:00:37.766Z,70.1
2016-09-29T00:00:58.347Z,69.9
2016-09-29T00:01:18.927Z,69.9
2016-09-29T00:01:39.507Z,70
2016-09-29T00:02:00.090Z,69.9
2016-09-29T00:02:20.673Z,70
2016-09-29T00:02:41.258Z,69.8
2016-09-29T00:03:01.850Z,69.9
2016-09-29T00:03:22.462Z,69.9
2016-09-29T00:03:43.024Z,70.2
2016-09-29T00:04:03.597Z,70.2
2016-09-29T00:04:24.179Z,70
2016-09-29T00:04:44.758Z,70
2016-09-29T00:05:05.318Z,70.1
2016-09-29T00:05:25.879Z,70.1
2016-09-29T00:05:46.461Z,70.2
2016-09-29T00:06:07.053Z,70.3
2016-09-29T00:06:27.625Z,70.1
2016-09-29T00:06:48.196Z,70.1
2016-09-29T00:07:08.763Z,69.9
2016-09-29T00:07:29.348Z,70.1
2016-09-29T00:07:49.941Z,70
2016-09-29T00:08:10.533Z,70
2016-09-29T00:08:31.113Z,70
2016-09-29T00:08:51.693Z,69.9
2016-09-29T00:09:12.262Z,70.1
2016-09-29T00:09:32.849Z,69.8
2016-09-29T00:09:53.421Z,69.8
2016-09-29T00:10:13.993Z,70
2016-09-29T00:10:34.597Z,70.1
2016-09-29T00:10:55.181Z,70
2016-09-29T00:11:15.750Z,70.2
2016-09-29T00:11:36.375Z,70.2
2016-09-29T00:11:56.949Z,70.1
2016-09-29T00:12:17.546Z,70.1
2016-09-29T00:12:38.117Z,70.2
2016-09-29T00:12:58.689Z,70.1
2016-09-29T00:13:19.263Z,69.9
2016-09-29T00:13:39.826Z,70.3
2016-09-29T00:14:00.398Z,70.2
2016-09-29T00:14:20.972Z,70.2
2016-09-29T00:14:41.555Z,69.6
2016-09-29T00:15:02.129Z,69.9
2016-09-29T00:15:22.719Z,69.6
2016-09-29T00:15:43.327Z,69.6
2016-09-29T00:16:03.902Z,69.7
2016-09-29T00:16:24.478Z,70.1
2016-09-29T00:16:45.045Z,69.7
2016-09-29T00:17:05.651Z,70
2016-09-29T00:17:26.243Z,70
2016-09-29T00:17:46.834Z,70
2016-09-29T00:18:07.406Z,70.1
2016-09-29T00:18:27.976Z,70
2016-09-29T00:18:48.551Z,70.2
2016-09-29T00:19:09.150Z,70.1
2016-09-29T00:19:29.740Z,70.2
2016-09-29T00:19:50.299Z,70.8
2016-09-29T00:20:10.874Z,70.9
2016-09-29T00:20:31.453Z,70.8
2016-09-29T00:20:52.045Z,70.5
2016-09-29T00:21:12.662Z,70.6
2016-09-29T00:21:33.211Z,70.5
2016-09-29T00:21:53.792Z,70.7
2016-09-29T00:22:14.373Z,70.5
2016-09-29T00:22:34.975Z,70.5
2016-09-29T00:22:55.549Z,70.3
2016-09-29T00:23:16.130Z,70.5
2016-09-29T00:23:36.705Z,70.6
2016-09-29T00:23:57.310Z,70.7
2016-09-29T00:24:17.885Z,70.5
2016-09-29T00:24:38.456Z,70.5
2016-09-29T00:24:59.025Z,70.7
2016-09-29T00:25:19.652Z,70.4
2016-09-29T00:25:40.221Z,70.3
2016-09-29T00:26:00.795Z,70.6
2016-09-29T00:26:22.256Z,70.4
2016-09-29T00:26:42.840Z,70.4
2016-09-29T00:27:03.436Z,70.1
2016-09-29T00:27:24.038Z,70.9
2016-09-29T00:27:44.616Z,70.8
2016-09-29T00:28:05.203Z,71.1
2016-09-29T00:28:25.778Z,70.9
2016-09-29T00:28:46.394Z,71
2016-09-29T00:29:06.983Z,70.7
2016-09-29T00:29:27.568Z,70.9
2016-09-29T00:29:48.143Z,70.9
2016-09-29T00:30:08.705Z,70.7
2016-09-29T00:30:29.286Z,70.7
2016-09-29T00:30:49.875Z,70.7
2016-09-29T00:31:10.447Z,70.7
2016-09-29T00:31:31.040Z,71.1
2016-09-29T00:31:51.601Z,70.8
2016-09-29T00:32:12.254Z,70.7
2016-09-29T00:32:32.842Z,71.1
2016-09-29T00:32:53.420Z,71.1
2016-09-29T00:33:14.023Z,71.1
2016-09-29T00:33:34.591Z,70.8
2016-09-29T00:33:55.176Z,71.1
2016-09-29T00:34:15.744Z,71.2
2016-09-29T00:34:36.296Z,71.2
2016-09-29T00:34:56.897Z,71
2016-09-29T00:35:17.489Z,71.4
2016-09-29T00:35:38.099Z,71
2016-09-29T00:35:58.668Z,71.1
2016-09-29T00:36:19.277Z,71
2016-09-29T00:36:39.847Z,71.1
2016-09-29T00:37:00.450Z,71
2016-09-29T00:37:21.038Z,71
2016-09-29T00:37:41.610Z,70.9
2016-09-29T00:38:02.195Z,71.1
2016-09-29T00:38:22.760Z,71.1
2016-09-29T00:38:43.360Z,71.3
2016-09-29T00:39:03.936Z,71.1
2016-09-29T00:39:24.515Z,71
2016-09-29T00:39:45.100Z,71
2016-09-29T00:40:05.677Z,71.1
2016-09-29T00:40:26.270Z,71.1
2016-09-29T00:40:46.839Z,71.5
2016-09-29T00:41:07.397Z,71.1
2016-09-29T00:41:27.979Z,71
2016-09-29T00:41:48.573Z,71.3
2016-09-29T00:42:09.141Z,71.1
2016-09-29T00:42:29.729Z,70.9
2016-09-29T00:42:50.307Z,71.5
2016-09-29T00:43:10.877Z,71.4
2016-09-29T00:43:31.447Z,71.4
2016-09-29T00:43:52.035Z,70.9
2016-09-29T00:44:12.606Z,71
2016-09-29T00:44:33.223Z,71.4
2016-09-29T00:44:53.791Z,71.1
2016-09-29T00:45:14.386Z,71.3
2016-09-29T00:45:34.963Z,71.6
2016-09-29T00:45:55.532Z,71.6
2016-09-29T00:46:16.127Z,71.4
2016-09-29T00:46:36.702Z,71.3
2016-09-29T00:46:57.269Z,71.5
2016-09-29T00:47:17.839Z,71.5
2016-09-29T00:47:38.414Z,71.5
2016-09-29T00:47:59.009Z,71.5
2016-09-29T00:48:19.589Z,71.5
2016-09-29T00:48:40.168Z,71.3
2016-09-29T00:49:00.724Z,71.3
2016-09-29T00:49:21.299Z,71.3
2016-09-29T00:49:41.895Z,71.3
2016-09-29T00:50:02.491Z,71.3
2016-09-29T00:50:23.063Z,71.3
2016-09-29T00:50:43.645Z,71.3
2016-09-29T00:51:04.223Z,71.1
2016-09-29T00:51:24.798Z,71.1
2016-09-29T00:51:45.372Z,71.4
2016-09-29T00:52:05.955Z,71.3
2016-09-29T00:52:26.536Z,71.3
2016-09-29T00:52:47.122Z,71.4
2016-09-29T00:53:07.707Z,71.5
2016-09-29T00:53:28.266Z,71.5
2016-09-29T00:53:48.848Z,71.6
2016-09-29T00:54:09.425Z,71.6
2016-09-29T00:54:30.006Z,71.6
2016-09-29T00:54:50.591Z,71.6
2016-09-29T00:55:12.320Z,71.4
2016-09-29T00:55:32.920Z,71.6
2016-09-29T00:55:53.514Z,71.5
2016-09-29T00:56:14.111Z,71.4
2016-09-29T00:56:34.681Z,71.4
2016-09-29T00:56:55.271Z,71.4
2016-09-29T00:57:15.841Z,71.1
2016-09-29T00:57:36.421Z,71.1
2016-09-29T00:57:57.011Z,71
2016-09-29T00:58:17.585Z,71.1
2016-09-29T00:58:38.172Z,71.1
2016-09-29T00:58:58.754Z,71.1
2016-09-29T00:59:19.335Z,70.9
2016-09-29T00:59:39.902Z,70.9
2016-09-29T01:00:00.508Z,71.4
2016-09-29T01:00:21.081Z,71.4
2016-09-29T01:00:41.679Z,71.3
2016-09-29T01:01:02.253Z,71.4
2016-09-29T01:01:22.843Z,71.1
2016-09-29T01:01:43.419Z,71
2016-09-29T01:02:03.999Z,71
2016-09-29T01:02:24.587Z,71.1
2016-09-29T01:02:45.171Z,71.1
2016-09-29T01:03:05.750Z,71.1
2016-09-29T01:03:26.307Z,71.1
2016-09-29T01:03:46.883Z,71.1
2016-09-29T01:04:07.462Z,70.9
2016-09-29T01:04:28.047Z,71.1
2016-09-29T01:04:48.620Z,71.1
2016-09-29T01:05:09.182Z,70.8
2016-09-29T01:05:29.765Z,71.1
2016-09-29T01:05:50.359Z,70.8
2016-09-29T01:06:10.934Z,71.1
2016-09-29T01:06:31.556Z,71.1
2016-09-29T01:06:52.141Z,71.1
2016-09-29T01:07:12.753Z,71
2016-09-29T01:07:33.348Z,70.8
2016-09-29T01:07:53.947Z,70.9
2016-09-29T01:08:14.695Z,71.1
2016-09-29T01:08:35.282Z,71.1
2016-09-29T01:08:55.842Z,71.1
2016-09-29T01:09:16.438Z,71.3
2016-09-29T01:09:37.009Z,71.3
2016-09-29T01:09:57.574Z,71.3
2016-09-29T01:10:18.142Z,71.2
2016-09-29T01:10:38.745Z,70.8
2016-09-29T01:10:59.326Z,70.8
2016-09-29T01:11:19.894Z,70.8
2016-09-29T01:11:40.485Z,71.1
2016-09-29T01:12:01.054Z,71.3
2016-09-29T01:12:21.637Z,71.3
2016-09-29T01:12:42.253Z,71
2016-09-29T01:13:02.851Z,71.1
2016-09-29T01:13:23.400Z,71
2016-09-29T01:13:43.961Z,71
2016-09-29T01:14:04.540Z,71
2016-09-29T01:14:25.137Z,71.1
2016-09-29T01:14:45.716Z,71.1
2016-09-29T01:15:06.293Z,71.3
2016-09-29T01:15:26.882Z,71.1
2016-09-29T01:15:47.471Z,71.2
2016-09-29T01:16:08.047Z,71.1
2016-09-29T01:16:28.628Z,71.3
2016-09-29T01:16:49.205Z,71.1
2016-09-29T01:17:09.776Z,71
2016-09-29T01:17:30.340Z,71.5
2016-09-29T01:17:50.915Z,71.6
2016-09-29T01:18:11.505Z,71.4
2016-09-29T01:18:32.115Z,71.5
2016-09-29T01:18:52.688Z,71.5
2016-09-29T01:19:13.267Z,71.6
2016-09-29T01:19:33.840Z,71.1
2016-09-29T01:19:54.404Z,71.1
2016-09-29T01:20:15.010Z,70.8
2016-09-29T01:20:35.599Z,71.1
2016-09-29T01:20:56.168Z,71.2
2016-09-29T01:21:16.744Z,71.2
2016-09-29T01:21:37.319Z,71
2016-09-29T01:21:57.907Z,71.1
2016-09-29T01:22:18.468Z,71.3
2016-09-29T01:22:39.041Z,71.3
2016-09-29T01:22:59.634Z,71.1
2016-09-29T01:23:20.241Z,71.1
2016-09-29T01:23:40.826Z,71.1
2016-09-29T01:24:01.416Z,70.3
2016-09-29T01:24:22.001Z,70.9
2016-09-29T01:24:42.565Z,71
2016-09-29T01:25:03.797Z,70.9
2016-09-29T01:25:24.375Z,70.9
2016-09-29T01:25:45.010Z,70.5
2016-09-29T01:26:05.602Z,70.7
2016-09-29T01:26:26.163Z,71.1
2016-09-29T01:26:46.764Z,70.8
2016-09-29T01:27:07.345Z,70.9
2016-09-29T01:27:27.916Z,70.9
2016-09-29T01:27:48.487Z,70.4
2016-09-29T01:28:09.060Z,70.5
2016-09-29T01:28:29.622Z,70.4
2016-09-29T01:28:50.345Z,70.2
2016-09-29T01:29:10.976Z,70.4
2016-09-29T01:29:31.557Z,70.7
2016-09-29T01:29:52.157Z,70.5
2016-09-29T01:30:12.730Z,70.3
2016-09-29T01:30:33.433Z,70.4
2016-09-29T01:30:54.003Z,70.5
2016-09-29T01:31:14.572Z,70.6
2016-09-29T01:31:35.157Z,70.5
2016-09-29T01:31:55.740Z,70.2
2016-09-29T01:32:16.321Z,70.5
2016-09-29T01:32:36.891Z,70.3
2016-09-29T01:32:57.473Z,70.7
2016-09-29T01:33:18.052Z,70.8
2016-09-29T01:33:38.634Z,70.7
2016-09-29T01:33:59.225Z,70.6
2016-09-29T01:34:19.870Z,70.7
2016-09-29T01:34:40.435Z,70.3
2016-09-29T01:35:01.013Z,70.4
2016-09-29T01:35:21.619Z,70.5
2016-09-29T01:35:42.214Z,70.4
2016-09-29T01:36:02.811Z,70.6
2016-09-29T01:36:23.384Z,70.6
2016-09-29T01:36:43.978Z,70.7
2016-09-29T01:37:04.558Z,70.3
2016-09-29T01:37:25.157Z,70.3
2016-09-29T01:37:45.733Z,70.7
2016-09-29T01:38:06.299Z,70.6
2016-09-29T01:38:26.873Z,70.7
2016-09-29T01:38:47.452Z,71.1
2016-09-29T01:39:08.025Z,71.1
2016-09-29T01:39:28.591Z,71.1
2016-09-29T01:39:49.175Z,71
2016-09-29T01:40:09.754Z,71
2016-09-29T01:40:30.321Z,70.9
2016-09-29T01:40:50.899Z,71.1
2016-09-29T01:41:11.504Z,70.8
2016-09-29T01:41:32.117Z,71.1
2016-09-29T01:41:52.716Z,71.1
2016-09-29T01:42:13.282Z,71.1
2016-09-29T01:42:33.861Z,71
2016-09-29T01:42:54.428Z,71
2016-09-29T01:43:15.003Z,71.1
2016-09-29T01:43:35.572Z,71
2016-09-29T01:43:56.161Z,71.3
2016-09-29T01:44:16.753Z,71.1
2016-09-29T01:44:37.382Z,70.9
2016-09-29T01:44:57.963Z,71
2016-09-29T01:45:18.527Z,71.1
2016-09-29T01:45:39.091Z,71.1
2016-09-29T01:45:59.665Z,71.1
2016-09-29T01:46:20.258Z,71.1
2016-09-29T01:46:40.841Z,71
2016-09-29T01:47:01.405Z,71.4
2016-09-29T01:47:21.973Z,71.5
2016-09-29T01:47:42.577Z,71.4
2016-09-29T01:48:03.153Z,71.7
2016-09-29T01:48:23.720Z,71.6
2016-09-29T01:48:44.292Z,71.6
2016-09-29T01:49:04.863Z,71.6
2016-09-29T01:49:25.434Z,71.5
2016-09-29T01:49:46.007Z,71.4
2016-09-29T01:50:06.591Z,71.6
2016-09-29T01:50:27.187Z,71.6
2016-09-29T01:50:47.763Z,71.3
2016-09-29T01:51:08.356Z,71.3
2016-09-29T01:51:28.933Z,71.7
2016-09-29T01:51:49.506Z,71.5
2016-09-29T01:52:10.087Z,71.5
2016-09-29T01:52:30.662Z,71.5
2016-09-29T01:52:51.251Z,71.3
2016-09-29T01:53:11.809Z,71.2
2016-09-29T01:53:32.381Z,71.3
2016-09-29T01:53:52.960Z,71.3
2016-09-29T01:54:13.559Z,71.5
2016-09-29T01:54:34.157Z,71.5
2016-09-29T01:54:54.732Z,71.6
2016-09-29T01:55:15.300Z,71.6
2016-09-29T01:55:35.895Z,71.5
2016-09-29T01:55:56.476Z,71.5
2016-09-29T01:56:17.062Z,71.4
2016-09-29T01:56:37.638Z,70.8
2016-09-29T01:56:58.212Z,71.3
2016-09-29T01:57:18.794Z,71.4
2016-09-29T01:57:39.369Z,71.4
2016-09-29T01:57:59.938Z,71.3
2016-09-29T01:58:20.516Z,71.1
2016-09-29T01:58:41.092Z,71.4
2016-09-29T01:59:01.660Z,71.4
2016-09-29T01:59:22.244Z,71.4
2016-09-29T01:59:42.810Z,71.6
2016-09-29T02:00:03.404Z,71.3
2016-09-29T02:00:23.982Z,70.8
2016-09-29T02:00:44.538Z,71.1
2016-09-29T02:01:05.130Z,70.9
2016-09-29T02:01:25.698Z,71.1
2016-09-29T02:01:46.279Z,71.1
2016-09-29T02:02:06.847Z,71.1
2016-09-29T02:02:27.439Z,71.1
2016-09-29T02:02:48.010Z,71.1
2016-09-29T02:03:08.588Z,71.5
2016-09-29T02:03:29.169Z,71.2
2016-09-29T02:03:49.773Z,71.1
2016-09-29T02:04:10.351Z,71.1
2016-09-29T02:04:30.903Z,70.7
2016-09-29T02:04:51.476Z,71.5
2016-09-29T02:05:12.045Z,71
2016-09-29T02:05:32.657Z,71.4
2016-09-29T02:05:53.245Z,71.6
2016-09-29T02:06:13.819Z,71.1
2016-09-29T02:06:34.388Z,70.9
2016-09-29T02:06:54.976Z,71
2016-09-29T02:07:15.545Z,71
2016-09-29T02:07:36.108Z,71.3
2016-09-29T02:07:56.676Z,71.1
2016-09-29T02:08:17.255Z,71.1
2016-09-29T02:08:37.852Z,71.2
2016-09-29T02:08:58.423Z,71.3
2016-09-29T02:09:19.016Z,71.1
2016-09-29T02:09:39.585Z,71.1
2016-09-29T02:10:00.353Z,70.7
2016-09-29T02:10:20.950Z,70.8
2016-09-29T02:10:41.528Z,70.8
2016-09-29T02:11:02.080Z,70.8
2016-09-29T02:11:22.672Z,71.1
2016-09-29T02:11:43.255Z,70.9
2016-09-29T02:12:03.822Z,70.5
2016-09-29T02:12:24.398Z,70.3
2016-09-29T02:12:44.961Z,70.7
2016-09-29T02:13:05.535Z,70.8
2016-09-29T02:13:26.139Z,70.7
2016-09-29T02:13:46.738Z,70.5
2016-09-29T02:14:07.312Z,70.5
2016-09-29T02:14:27.875Z,70.3
2016-09-29T02:14:48.449Z,70.5
2016-09-29T02:15:09.039Z,70.4
2016-09-29T02:15:29.615Z,70.4
2016-09-29T02:15:50.186Z,70.3
2016-09-29T02:16:10.752Z,70.6
2016-09-29T02:16:31.326Z,70.7
2016-09-29T02:16:51.899Z,70.5
2016-09-29T02:17:12.472Z,70.8
2016-09-29T02:17:33.037Z,70.4
2016-09-29T02:17:53.611Z,70.7
2016-09-29T02:18:14.181Z,70.9
2016-09-29T02:18:34.777Z,70.3
2016-09-29T02:18:55.348Z,70.3
2016-09-29T02:19:15.911Z,70.2
2016-09-29T02:19:36.487Z,70
2016-09-29T02:19:57.055Z,70.2
2016-09-29T02:20:17.670Z,70.3
2016-09-29T02:20:38.270Z,70.2
2016-09-29T02:20:58.837Z,69.9
2016-09-29T02:21:19.422Z,70.1
2016-09-29T02:21:39.996Z,70.1
2016-09-29T02:22:00.584Z,70.3
2016-09-29T02:22:21.151Z,69.7
2016-09-29T02:22:41.736Z,70.1
2016-09-29T02:23:02.321Z,70.2
2016-09-29T02:23:22.910Z,70.1
2016-09-29T02:23:43.481Z,69.7
2016-09-29T02:24:04.059Z,70.1
2016-09-29T02:24:24.625Z,70.1
2016-09-29T02:24:45.195Z,69.7
2016-09-29T02:25:05.778Z,69.9
2016-09-29T02:25:26.354Z,69.8
2016-09-29T02:25:46.930Z,70.1
2016-09-29T02:26:07.510Z,70.1
2016-09-29T02:26:28.106Z,69.8
2016-09-29T02:26:48.696Z,70.1
2016-09-29T02:27:09.256Z,70.2
2016-09-29T02:27:29.815Z,71.1
2016-09-29T02:27:50.401Z,69.9
2016-09-29T02:28:10.983Z,70.1
2016-09-29T02:28:31.592Z,69.7
2016-09-29T02:28:52.156Z,70.1
2016-09-29T02:29:12.750Z,70.1
2016-09-29T02:29:33.341Z,69.9
2016-09-29T02:29:53.916Z,69.9
2016-09-29T02:30:14.508Z,70.2
2016-09-29T02:30:35.079Z,69.8
2016-09-29T02:30:55.669Z,70.1
2016-09-29T02:31:16.246Z,70.2
2016-09-29T02:31:36.825Z,70.2
2016-09-29T02:31:57.403Z,70.1
2016-09-29T02:32:17.982Z,70.1
2016-09-29T02:32:38.553Z,70.1
2016-09-29T02:32:59.119Z,70
2016-09-29T02:33:19.687Z,69.9
2016-09-29T02:33:40.249Z,70.1
2016-09-29T02:34:00.847Z,70.1
2016-09-29T02:34:21.416Z,70.1
2016-09-29T02:34:41.995Z,70
2016-09-29T02:35:02.568Z,70
2016-09-29T02:35:23.118Z,70.1
2016-09-29T02:35:43.698Z,70.1
2016-09-29T02:36:04.284Z,69.9
2016-09-29T02:36:24.854Z,69.9
2016-09-29T02:36:45.425Z,70
2016-09-29T02:37:06.010Z,69.5
2016-09-29T02:37:26.586Z,69.6
2016-09-29T02:37:47.153Z,69.9
2016-09-29T02:38:07.724Z,69.4
2016-09-29T02:38:28.294Z,69.7
2016-09-29T02:38:48.874Z,69.4
2016-09-29T02:39:09.460Z,69.6
2016-09-29T02:39:30.045Z,69.8
2016-09-29T02:39:50.646Z,69.6
2016-09-29T02:40:11.204Z,69.4
2016-09-29T02:40:31.772Z,69.6
2016-09-29T02:40:52.361Z,69.8
2016-09-29T02:41:12.962Z,69.5
2016-09-29T02:41:33.536Z,69.5
2016-09-29T02:41:54.103Z,69.8
2016-09-29T02:42:14.673Z,69.5
2016-09-29T02:42:35.245Z,69.7
2016-09-29T02:42:55.808Z,70
2016-09-29T02:43:16.373Z,69.9
2016-09-29T02:43:36.959Z,69.8
2016-09-29T02:43:57.524Z,69.5
2016-09-29T02:44:18.105Z,69.6
2016-09-29T02:44:38.696Z,69.6
2016-09-29T02:44:59.272Z,69.6
2016-09-29T02:45:19.840Z,69.6
2016-09-29T02:45:40.419Z,69.8
2016-09-29T02:46:01.012Z,69.7
2016-09-29T02:46:21.588Z,69.7
2016-09-29T02:46:42.177Z,69.7
2016-09-29T02:47:02.748Z,69.8
2016-09-29T02:47:23.318Z,69.2
2016-09-29T02:47:43.977Z,69.2
2016-09-29T02:48:04.552Z,68.9
2016-09-29T02:48:25.115Z,68.9
2016-09-29T02:48:45.680Z,68.8
2016-09-29T02:49:06.271Z,69.1
2016-09-29T02:49:26.847Z,69.1
2016-09-29T02:49:47.438Z,69.2
2016-09-29T02:50:08.011Z,69.4
2016-09-29T02:50:28.583Z,69.6
2016-09-29T02:50:49.161Z,68.9
2016-09-29T02:51:09.749Z,69.2
2016-09-29T02:51:30.360Z,69.1
2016-09-29T02:51:50.957Z,69.2
2016-09-29T02:52:11.560Z,69.3
2016-09-29T02:52:32.149Z,69.3
2016-09-29T02:52:52.708Z,69.2
2016-09-29T02:53:13.275Z,69.2
2016-09-29T02:53:33.853Z,69.3
2016-09-29T02:53:54.429Z,68.8
2016-09-29T02:54:15.007Z,69.2
2016-09-29T02:54:35.570Z,69.2
2016-09-29T02:54:56.145Z,69.2
2016-09-29T02:55:16.703Z,69.3
2016-09-29T02:55:37.289Z,69.2
2016-09-29T02:55:57.869Z,69.3
2016-09-29T02:56:18.444Z,69.3
2016-09-29T02:56:39.023Z,69.1
2016-09-29T02:56:59.607Z,69.1
2016-09-29T02:57:20.181Z,69.1
2016-09-29T02:57:40.755Z,69.4
2016-09-29T02:58:01.351Z,69.2
2016-09-29T02:58:21.932Z,69.2
2016-09-29T02:58:42.510Z,69.2
2016-09-29T02:59:03.102Z,69.2
2016-09-29T02:59:23.675Z,68.4
2016-09-29T02:59:44.256Z,68.8
2016-09-29T03:00:04.824Z,68.8
2016-09-29T03:00:25.385Z,68.6
2016-09-29T03:00:45.972Z,69.1
2016-09-29T03:01:06.555Z,68.8
2016-09-29T03:01:27.134Z,68.8
2016-09-29T03:01:47.733Z,68.5
2016-09-29T03:02:08.311Z,68.8
2016-09-29T03:02:28.880Z,68.8
2016-09-29T03:02:49.490Z,68.9
2016-09-29T03:03:10.070Z,68.6
2016-09-29T03:03:30.668Z,68.8
2016-09-29T03:03:51.248Z,68.8
2016-09-29T03:04:11.809Z,68.6
2016-09-29T03:04:32.398Z,68.6
2016-09-29T03:04:52.980Z,68.7
2016-09-29T03:05:13.575Z,68.9
2016-09-29T03:05:34.152Z,68.8
2016-09-29T03:05:54.724Z,68.9
2016-09-29T03:06:15.334Z,68.6
2016-09-29T03:06:35.910Z,68.8
2016-09-29T03:06:56.510Z,68.8
2016-09-29T03:07:17.111Z,68.8
2016-09-29T03:07:37.705Z,68.6
2016-09-29T03:07:58.282Z,68.8
2016-09-29T03:08:18.878Z,68.9
2016-09-29T03:08:39.439Z,68.8
2016-09-29T03:09:00.007Z,68.6
2016-09-29T03:09:20.591Z,68.7
2016-09-29T03:09:41.174Z,68.6
2016-09-29T03:10:01.747Z,68.7
2016-09-29T03:10:22.320Z,68.6
2016-09-29T03:10:42.894Z,68.8
2016-09-29T03:11:03.517Z,68.8
2016-09-29T03:11:24.103Z,68.8
2016-09-29T03:11:44.678Z,68.8
2016-09-29T03:12:05.236Z,68.8
2016-09-29T03:12:25.814Z,68.9
2016-09-29T03:12:46.394Z,68.8
2016-09-29T03:13:07.002Z,68.9
2016-09-29T03:13:27.581Z,68.7
2016-09-29T03:13:48.156Z,68.7
2016-09-29T03:14:08.760Z,68.7
2016-09-29T03:14:29.342Z,68.7
2016-09-29T03:14:49.907Z,68.8
2016-09-29T03:15:10.490Z,68.7
2016-09-29T03:15:31.075Z,68.8
2016-09-29T03:15:51.668Z,68.9
2016-09-29T03:16:12.260Z,68.2
2016-09-29T03:16:32.818Z,68.3
2016-09-29T03:16:53.388Z,68.8
2016-09-29T03:17:13.964Z,68.7
2016-09-29T03:17:34.535Z,69
2016-09-29T03:17:55.132Z,68.7
2016-09-29T03:18:15.719Z,68.2
2016-09-29T03:18:36.303Z,68.2
2016-09-29T03:18:56.877Z,68.3
2016-09-29T03:19:17.453Z,68.5
2016-09-29T03:19:38.031Z,69
2016-09-29T03:19:58.620Z,68.5
2016-09-29T03:20:19.236Z,68.2
2016-09-29T03:20:39.830Z,68.7
2016-09-29T03:21:00.442Z,68.7
2016-09-29T03:21:21.021Z,68.9
2016-09-29T03:21:41.605Z,68.8
2016-09-29T03:22:02.189Z,68.8
2016-09-29T03:22:22.757Z,68.8
2016-09-29T03:22:43.331Z,68.8
2016-09-29T03:23:03.891Z,68.8
2016-09-29T03:23:24.481Z,68.6
2016-09-29T03:23:45.079Z,68.8
2016-09-29T03:24:05.645Z,68.8
2016-09-29T03:24:26.213Z,68.8
2016-09-29T03:24:46.797Z,68.8
2016-09-29T03:25:07.388Z,68.8
2016-09-29T03:25:28.025Z,68.8
2016-09-29T03:25:48.600Z,68.6
2016-09-29T03:26:09.178Z,68.6
2016-09-29T03:26:29.755Z,68.3
2016-09-29T03:26:50.381Z,68.3
2016-09-29T03:27:10.962Z,68.3
2016-09-29T03:27:31.546Z,68.4
2016-09-29T03:27:52.139Z,68.5
2016-09-29T03:28:12.731Z,68.4
2016-09-29T03:28:33.316Z,68.5
2016-09-29T03:28:53.869Z,68.3
2016-09-29T03:29:14.437Z,68.4
2016-09-29T03:29:35.025Z,68.6
2016-09-29T03:29:55.607Z,68.4
2016-09-29T03:30:16.172Z,68.4
2016-09-29T03:30:36.742Z,68.4
2016-09-29T03:30:57.308Z,68.2
2016-09-29T03:31:17.911Z,68.5
2016-09-29T03:31:38.536Z,68.6
2016-09-29T03:31:59.093Z,68.4
2016-09-29T03:32:19.684Z,68.4
2016-09-29T03:32:40.282Z,68.2
2016-09-29T03:33:00.861Z,68.2
2016-09-29T03:33:21.430Z,68.5
2016-09-29T03:33:41.989Z,67.5
2016-09-29T03:34:02.585Z,67.7
2016-09-29T03:34:23.165Z,67.7
2016-09-29T03:34:43.847Z,67.5
2016-09-29T03:35:04.415Z,67.9
2016-09-29T03:35:25.005Z,67.8
2016-09-29T03:35:45.598Z,68
2016-09-29T03:36:06.183Z,67.7
2016-09-29T03:36:26.766Z,67.6
2016-09-29T03:36:47.368Z,67.6
2016-09-29T03:37:07.953Z,67.8
2016-09-29T03:37:28.544Z,67.8
2016-09-29T03:37:49.126Z,67.8
2016-09-29T03:38:09.702Z,67.3
2016-09-29T03:38:30.284Z,67.7
2016-09-29T03:38:50.877Z,67.6
2016-09-29T03:39:11.500Z,67.6
2016-09-29T03:39:32.060Z,67.5
2016-09-29T03:39:52.653Z,67.8
2016-09-29T03:40:13.233Z,67.7
2016-09-29T03:40:33.833Z,67.5
2016-09-29T03:40:54.419Z,67.7
2016-09-29T03:41:15.034Z,67.3
2016-09-29T03:41:35.625Z,67.2
2016-09-29T03:41:56.212Z,67.2
2016-09-29T03:42:16.775Z,67.4
2016-09-29T03:42:37.348Z,67.2
2016-09-29T03:42:57.917Z,67.2
2016-09-29T03:43:18.512Z,67.3
2016-09-29T03:43:39.086Z,67.4
2016-09-29T03:43:59.641Z,67.2
2016-09-29T03:44:20.226Z,67.2
2016-09-29T03:44:40.807Z,67.2
2016-09-29T03:45:01.374Z,66.9
2016-09-29T03:45:21.948Z,66.7
2016-09-29T03:45:42.514Z,66.7
2016-09-29T03:46:03.076Z,66.7
2016-09-29T03:46:23.635Z,66.8
2016-09-29T03:46:44.206Z,66.6
2016-09-29T03:47:04.779Z,66.8
2016-09-29T03:47:25.351Z,66.6
2016-09-29T03:47:45.926Z,66.7
2016-09-29T03:48:06.511Z,66.5
2016-09-29T03:48:27.090Z,67
2016-09-29T03:48:47.661Z,66.4
2016-09-29T03:49:08.238Z,66.5
2016-09-29T03:49:28.852Z,67.2
2016-09-29T03:49:49.429Z,66.4
2016-09-29T03:50:10.037Z,66.5
2016-09-29T03:50:30.610Z,66
2016-09-29T03:50:51.187Z,66.3
2016-09-29T03:51:11.783Z,65.8
2016-09-29T03:51:32.439Z,66.1
2016-09-29T03:51:52.995Z,66.3
2016-09-29T03:52:13.576Z,66
2016-09-29T03:52:34.152Z,65.7
2016-09-29T03:52:54.766Z,65.9
2016-09-29T03:53:15.339Z,66.1
2016-09-29T03:53:35.921Z,65.8
2016-09-29T03:53:56.496Z,66
2016-09-29T03:54:17.108Z,65.8
2016-09-29T03:54:37.690Z,65.9
2016-09-29T03:54:58.266Z,65.7
2016-09-29T03:55:18.835Z,65.6
2016-09-29T03:55:39.451Z,65.9
2016-09-29T03:56:00.058Z,65.6
2016-09-29T03:56:20.642Z,65.8
2016-09-29T03:56:41.227Z,65.8
2016-09-29T03:57:01.795Z,65.9
2016-09-29T03:57:22.397Z,65.7
2016-09-29T03:57:43.026Z,65.6
2016-09-29T03:58:03.589Z,65.8
2016-09-29T03:58:24.162Z,65.6
2016-09-29T03:58:44.746Z,65.6
2016-09-29T03:59:05.340Z,65.6
2016-09-29T03:59:25.909Z,65.6
2016-09-29T03:59:46.478Z,66
2016-09-29T04:00:07.045Z,65.5
2016-09-29T04:00:27.628Z,65.6
2016-09-29T04:00:48.207Z,65.8
2016-09-29T04:01:08.794Z,65.8
2016-09-29T04:01:29.366Z,65.5
2016-09-29T04:01:49.952Z,65.5
2016-09-29T04:02:10.533Z,65.3
2016-09-29T04:02:31.120Z,65
2016-09-29T04:02:51.686Z,65
2016-09-29T04:03:12.279Z,65.2
2016-09-29T04:03:32.847Z,65.1
2016-09-29T04:03:53.424Z,64.7
2016-09-29T04:04:14.003Z,64.9
2016-09-29T04:04:34.577Z,64.8
2016-09-29T04:04:55.157Z,64.8
2016-09-29T04:05:15.736Z,64.9
2016-09-29T04:05:36.331Z,64.8
2016-09-29T04:05:56.913Z,65.1
2016-09-29T04:06:17.580Z,65.1
2016-09-29T04:06:38.167Z,64.9
2016-09-29T04:06:58.749Z,64.3
2016-09-29T04:07:19.347Z,64.5
2016-09-29T04:07:39.945Z,64.3
2016-09-29T04:08:00.556Z,64.5
2016-09-29T04:08:21.122Z,64.1
2016-09-29T04:08:41.699Z,64.8
2016-09-29T04:09:02.272Z,64.8
2016-09-29T04:09:22.870Z,65.3
2016-09-29T04:09:43.453Z,65.7
2016-09-29T04:10:04.043Z,65.9
2016-09-29T04:10:24.610Z,66.7
2016-09-29T04:10:45.203Z,66.7
2016-09-29T04:11:05.792Z,66.4
2016-09-29T04:11:26.373Z,66.7
2016-09-29T04:11:46.955Z,67
2016-09-29T04:12:07.522Z,66.8
2016-09-29T04:12:28.095Z,67.7
2016-09-29T04:12:48.683Z,67.9
2016-09-29T04:13:09.269Z,68.2
2016-09-29T04:13:29.846Z,68.1
2016-09-29T04:13:50.416Z,68.1
2016-09-29T04:14:10.988Z,68.3
2016-09-29T04:14:31.584Z,68.1
2016-09-29T04:14:52.177Z,67.9
2016-09-29T04:15:12.743Z,68.2
2016-09-29T04:15:33.325Z,68
2016-09-29T04:15:53.900Z,68.1
2016-09-29T04:16:14.471Z,68.1
2016-09-29T04:16:35.060Z,68.1
2016-09-29T04:16:55.637Z,68.1
2016-09-29T04:17:16.252Z,68
2016-09-29T04:17:36.818Z,68.2
2016-09-29T04:17:57.395Z,68.1
2016-09-29T04:18:17.985Z,68.1
2016-09-29T04:18:38.551Z,68.5
2016-09-29T04:18:59.128Z,68.4
2016-09-29T04:19:19.699Z,68.4
2016-09-29T04:19:40.272Z,68.4
2016-09-29T04:20:00.837Z,68.6
2016-09-29T04:20:21.420Z,68.3
2016-09-29T04:20:42.007Z,68.6
2016-09-29T04:21:02.578Z,68.3
2016-09-29T04:21:23.246Z,68.6
2016-09-29T04:21:43.850Z,68.5
2016-09-29T04:22:04.451Z,68.7
2016-09-29T04:22:25.027Z,68.6
2016-09-29T04:22:45.597Z,68.5
2016-09-29T04:23:06.159Z,68.6
2016-09-29T04:23:26.743Z,68.5
2016-09-29T04:23:47.339Z,68.5
2016-09-29T04:24:07.915Z,68.7
2016-09-29T04:24:28.510Z,68.8
2016-09-29T04:24:49.096Z,68.9
2016-09-29T04:25:09.659Z,68.5
2016-09-29T04:25:30.230Z,68.8
2016-09-29T04:25:50.802Z,68.8
2016-09-29T04:26:11.379Z,68.4
2016-09-29T04:26:31.945Z,69.2
2016-09-29T04:26:52.528Z,68.9
2016-09-29T04:27:13.126Z,69.5
2016-09-29T04:27:33.715Z,68.8
2016-09-29T04:27:54.297Z,68.7
2016-09-29T04:28:14.876Z,68.8
2016-09-29T04:28:35.458Z,68.8
2016-09-29T04:28:56.037Z,69
2016-09-29T04:29:16.641Z,69.2
2016-09-29T04:29:37.205Z,69.2
2016-09-29T04:29:57.795Z,69.2
2016-09-29T04:30:18.383Z,69.6
2016-09-29T04:30:38.946Z,69.4
2016-09-29T04:30:59.526Z,69.3
2016-09-29T04:31:20.104Z,69.3
2016-09-29T04:31:40.678Z,69.3
2016-09-29T04:32:01.258Z,69.5
2016-09-29T04:32:21.822Z,69.2
2016-09-29T04:32:42.416Z,69.2
2016-09-29T04:33:02.983Z,69.3
2016-09-29T04:33:23.558Z,69.4
2016-09-29T04:33:44.121Z,69.5
2016-09-29T04:34:04.697Z,69.3
2016-09-29T04:34:25.271Z,69.2
2016-09-29T04:34:45.871Z,68.8
2016-09-29T04:35:06.441Z,69.3
2016-09-29T04:35:27.002Z,69.3